createdAt,value
2019-05-01T00:02:25.631Z,63.62
2019-05-01T00:05:16.473Z,62.88
2019-05-01T00:07:46.758Z,62.61
2019-05-01T00:10:17.337Z,62.11
2019-05-01T00:12:47.239Z,61.37
2019-05-01T00:15:17.592Z,61.51
2019-05-01T00:17:47.542Z,61.87
2019-05-01T00:20:17.907Z,63.53
2019-05-01T00:22:47.761Z,64.39
2019-05-01T00:25:17.628Z,64.67
2019-05-01T00:27:47.487Z,65.58
2019-05-01T00:30:29.726Z,65.65
2019-05-01T00:32:51.622Z,65.90
2019-05-01T00:35:21.509Z,66.36
2019-05-01T00:37:51.356Z,66.10
2019-05-01T00:40:21.529Z,66.06
2019-05-01T00:42:51.418Z,65.86
2019-05-01T00:45:21.560Z,64.99
2019-05-01T00:47:51.679Z,63.97
2019-05-01T00:50:21.679Z,64.00
2019-05-01T00:52:51.553Z,64.05
2019-05-01T00:55:39.094Z,63.93
2019-05-01T00:58:25.137Z,63.60
2019-05-01T01:01:05.661Z,63.81
2019-05-01T01:03:35.626Z,64.30
2019-05-01T01:06:06.202Z,64.11
2019-05-01T01:08:36.212Z,63.95
2019-05-01T01:11:06.574Z,63.60
2019-05-01T01:13:36.519Z,63.97
2019-05-01T01:16:06.558Z,63.28
2019-05-01T01:18:36.416Z,63.34
2019-05-01T01:21:06.314Z,63.15
2019-05-01T01:23:36.837Z,63.39
2019-05-01T01:26:06.984Z,63.64
2019-05-01T01:28:37.091Z,63.33
2019-05-01T01:31:06.971Z,63.56
2019-05-01T01:33:37.264Z,63.80
2019-05-01T01:36:07.224Z,63.83
2019-05-01T01:38:37.180Z,64.23
2019-05-01T01:41:07.274Z,64.05
2019-05-01T01:43:54.287Z,64.22
2019-05-01T01:46:26.417Z,65.28
2019-05-01T01:48:56.649Z,66.52
2019-05-01T01:51:26.789Z,67.60
2019-05-01T01:53:58.222Z,67.77
2019-05-01T01:56:28.402Z,67.82
2019-05-01T01:58:58.651Z,67.58
2019-05-01T02:01:53.514Z,67.26
2019-05-01T02:04:58.052Z,67.71
2019-05-01T02:07:28.129Z,67.47
2019-05-01T02:09:58.057Z,67.77
2019-05-01T02:12:28.310Z,68.62
2019-05-01T02:14:58.178Z,69.21
2019-05-01T02:17:28.300Z,69.41
2019-05-01T02:19:58.756Z,70.25
2019-05-01T02:22:28.860Z,70.58
2019-05-01T02:24:58.761Z,71.26
2019-05-01T02:27:35.654Z,71.91
2019-05-01T02:30:08.110Z,73.15
2019-05-01T02:32:39.333Z,73.53
2019-05-01T02:35:10.134Z,73.31
2019-05-01T02:37:40.638Z,74.03
2019-05-01T02:40:53.091Z,74.88
2019-05-01T02:43:27.019Z,75.23
2019-05-01T02:45:58.702Z,75.30
2019-05-01T02:48:34.083Z,75.92
2019-05-01T02:51:07.154Z,75.88
2019-05-01T02:53:41.532Z,76.26
2019-05-01T02:56:19.035Z,76.88
2019-05-01T02:58:51.946Z,77.52
2019-05-01T03:01:22.901Z,77.90
2019-05-01T03:03:54.032Z,78.23
2019-05-01T03:06:24.285Z,78.52
2019-05-01T03:08:55.975Z,78.43
2019-05-01T03:11:26.293Z,78.87
2019-05-01T03:13:59.386Z,78.78
2019-05-01T03:16:29.748Z,78.77
2019-05-01T03:19:02.547Z,78.54
2019-05-01T03:21:51.801Z,79.25
2019-05-01T03:24:24.408Z,79.75
2019-05-01T03:26:55.885Z,80.59
2019-05-01T03:29:26.291Z,80.40
2019-05-01T03:32:15.957Z,80.75
2019-05-01T03:34:29.020Z,81.51
2019-05-01T03:36:59.084Z,82.23
2019-05-01T03:39:28.924Z,83.01
2019-05-01T03:41:59.274Z,83.48
2019-05-01T03:44:29.566Z,83.76
2019-05-01T03:46:59.789Z,84.00
2019-05-01T03:49:29.816Z,83.80
2019-05-01T03:52:00.142Z,84.18
2019-05-01T03:54:30.490Z,84.28
2019-05-01T03:57:00.795Z,84.27
2019-05-01T03:59:30.630Z,84.42
2019-05-01T04:02:32.796Z,84.12
2019-05-01T04:04:52.495Z,84.80
2019-05-01T04:07:22.489Z,84.90
2019-05-01T04:09:52.777Z,85.02
2019-05-01T04:12:22.765Z,85.08
2019-05-01T04:14:52.955Z,84.80
2019-05-01T04:17:30.162Z,84.53
2019-05-01T04:20:00.685Z,84.52
2019-05-01T04:22:30.694Z,84.18
2019-05-01T04:25:00.633Z,83.85
2019-05-01T04:27:34.050Z,83.89
2019-05-01T04:30:29.886Z,84.27
2019-05-01T04:33:02.733Z,84.85
2019-05-01T04:35:50.242Z,85.37
2019-05-01T04:38:20.463Z,85.81
2019-05-01T04:40:50.765Z,85.10
2019-05-01T04:43:20.755Z,85.37
2019-05-01T04:45:50.779Z,85.31
2019-05-01T04:48:20.942Z,85.22
2019-05-01T04:50:51.214Z,84.48
2019-05-01T04:53:21.386Z,84.88
2019-05-01T04:55:51.733Z,84.41
2019-05-01T04:58:21.926Z,84.14
2019-05-01T05:00:51.883Z,83.93
2019-05-01T05:03:23.974Z,83.89
2019-05-01T05:05:54.011Z,83.72
2019-05-01T05:08:24.011Z,82.72
2019-05-01T05:10:56.127Z,82.44
2019-05-01T05:13:46.954Z,81.03
2019-05-01T05:16:25.537Z,80.43
2019-05-01T05:18:55.603Z,79.70
2019-05-01T05:21:25.556Z,80.20
2019-05-01T05:23:55.528Z,80.70
2019-05-01T05:26:25.434Z,81.35
2019-05-01T05:28:55.572Z,80.48
2019-05-01T05:31:27.702Z,78.85
2019-05-01T05:34:00.455Z,78.79
2019-05-01T05:36:33.032Z,77.83
2019-05-01T05:39:15.651Z,73.54
2019-05-01T05:41:46.774Z,73.90
2019-05-01T05:44:16.787Z,74.85
2019-05-01T05:46:47.675Z,76.01
2019-05-01T05:49:17.769Z,76.89
2019-05-01T05:51:58.477Z,75.62
2019-05-01T05:54:56.319Z,75.82
2019-05-01T05:57:40.525Z,76.89
2019-05-01T06:00:27.043Z,75.95
2019-05-01T06:03:07.775Z,76.81
2019-05-01T06:05:53.655Z,77.32
2019-05-01T06:08:35.663Z,77.46
2019-05-01T06:11:24.578Z,76.81
2019-05-01T06:14:14.177Z,76.92
2019-05-01T06:16:54.281Z,75.50
2019-05-01T06:19:35.854Z,75.35
2019-05-01T06:22:34.036Z,73.73
2019-05-01T06:25:21.224Z,73.46
2019-05-01T06:27:44.853Z,71.65
2019-05-01T06:30:13.963Z,72.46
2019-05-01T06:32:44.661Z,73.04
2019-05-01T06:35:14.611Z,72.36
2019-05-01T06:38:02.262Z,74.24
2019-05-01T06:40:41.044Z,75.54
2019-05-01T06:43:25.463Z,75.40
2019-05-01T06:46:14.087Z,75.80
2019-05-01T06:48:53.493Z,76.56
2019-05-01T06:51:48.038Z,75.39
2019-05-01T06:54:19.828Z,75.25
2019-05-01T06:56:51.503Z,76.20
2019-05-01T06:59:26.123Z,76.22
2019-05-01T07:01:58.339Z,74.93
2019-05-01T07:04:26.581Z,76.26
2019-05-01T07:06:56.929Z,75.99
2019-05-01T07:09:28.352Z,75.52
2019-05-01T07:11:59.673Z,75.54
2019-05-01T07:14:29.709Z,76.47
2019-05-01T07:16:59.737Z,75.08
2019-05-01T07:19:48.366Z,74.31
2019-05-01T07:22:18.409Z,74.28
2019-05-01T07:24:49.791Z,71.98
2019-05-01T07:27:23.769Z,69.75
2019-05-01T07:29:53.684Z,71.71
2019-05-01T07:32:24.008Z,70.85
2019-05-01T07:34:56.965Z,69.51
2019-05-01T07:37:27.738Z,70.72
2019-05-01T07:39:58.030Z,68.88
2019-05-01T07:42:33.741Z,65.44
2019-05-01T07:45:26.755Z,66.29
2019-05-01T07:48:00.901Z,66.68
2019-05-01T07:50:31.913Z,63.97
2019-05-01T07:53:01.556Z,64.29
2019-05-01T07:55:37.558Z,64.95
2019-05-01T07:58:15.794Z,63.94
2019-05-01T08:00:52.767Z,63.04
2019-05-01T08:03:22.837Z,62.98
2019-05-01T08:05:52.954Z,60.47
2019-05-01T08:08:22.917Z,61.40
2019-05-01T08:10:52.913Z,61.98
2019-05-01T08:13:22.894Z,61.44
2019-05-01T08:15:53.439Z,59.74
2019-05-01T08:18:29.104Z,58.87
2019-05-01T08:21:11.512Z,55.12
2019-05-01T08:23:42.685Z,57.03
2019-05-01T08:26:13.060Z,57.95
2019-05-01T08:29:02.922Z,57.38
2019-05-01T08:31:40.567Z,57.77
2019-05-01T08:34:12.382Z,57.93
2019-05-01T08:36:46.836Z,55.22
2019-05-01T08:39:14.183Z,55.79
2019-05-01T08:41:44.186Z,54.50
2019-05-01T08:44:14.063Z,54.57
2019-05-01T08:46:52.889Z,53.96
2019-05-01T08:49:36.515Z,53.44
2019-05-01T08:52:12.616Z,52.52
2019-05-01T08:54:38.777Z,50.71
2019-05-01T08:57:08.685Z,48.02
2019-05-01T08:59:39.119Z,48.41
2019-05-01T09:02:09.957Z,48.50
2019-05-01T09:04:40.499Z,48.82
2019-05-01T09:07:14.777Z,48.17
2019-05-01T09:09:45.475Z,49.13
2019-05-01T09:12:14.151Z,44.12
2019-05-01T09:14:44.036Z,38.17
2019-05-01T09:17:13.920Z,38.43
2019-05-01T09:19:43.931Z,38.10
2019-05-01T09:22:13.834Z,36.98
2019-05-01T09:24:43.711Z,35.28
2019-05-01T09:27:29.309Z,35.89
2019-05-01T09:29:57.126Z,38.08
2019-05-01T09:32:27.251Z,35.36
2019-05-01T09:34:58.433Z,34.48
2019-05-01T09:37:28.596Z,39.51
2019-05-01T09:39:58.849Z,36.30
2019-05-01T09:42:29.068Z,38.19
2019-05-01T09:44:58.920Z,34.49
2019-05-01T09:47:29.575Z,33.91
2019-05-01T09:49:59.450Z,36.42
2019-05-01T09:52:55.044Z,38.02
2019-05-01T09:55:27.304Z,37.07
2019-05-01T09:57:57.202Z,39.53
2019-05-01T10:00:30.585Z,34.82
2019-05-01T10:03:00.548Z,34.60
2019-05-01T10:05:30.419Z,38.78
2019-05-01T10:08:04.189Z,36.65
2019-05-01T10:10:31.998Z,38.01
2019-05-01T10:13:02.160Z,34.59
2019-05-01T10:15:32.113Z,36.38
2019-05-01T10:18:02.346Z,36.71
2019-05-01T10:20:32.227Z,37.38
2019-05-01T10:23:02.118Z,35.96
2019-05-01T10:25:32.543Z,39.08
2019-05-01T10:28:12.331Z,38.48
2019-05-01T10:30:58.038Z,36.69
2019-05-01T10:33:28.969Z,35.80
2019-05-01T10:36:18.953Z,37.44
2019-05-01T10:38:46.928Z,39.87
2019-05-01T10:41:17.086Z,41.26
2019-05-01T10:43:47.263Z,40.83
2019-05-01T10:46:17.107Z,40.44
2019-05-01T10:48:46.974Z,41.19
2019-05-01T10:51:17.206Z,42.74
2019-05-01T10:53:47.122Z,43.46
2019-05-01T10:56:16.989Z,41.80
2019-05-01T10:58:47.158Z,39.57
2019-05-01T11:01:22.735Z,40.19
2019-05-01T11:03:52.588Z,40.22
2019-05-01T11:06:22.785Z,40.97
2019-05-01T11:08:52.678Z,41.94
2019-05-01T11:11:22.543Z,41.58
2019-05-01T11:13:52.433Z,42.24
2019-05-01T11:16:22.342Z,42.16
2019-05-01T11:18:52.324Z,42.16
2019-05-01T11:21:22.442Z,41.34
2019-05-01T11:23:52.295Z,42.66
2019-05-01T11:26:22.164Z,41.37
2019-05-01T11:28:52.079Z,42.04
2019-05-01T11:31:28.130Z,41.25
2019-05-01T11:34:13.898Z,41.51
2019-05-01T11:37:15.046Z,40.34
2019-05-01T11:39:54.550Z,40.70
2019-05-01T11:42:25.078Z,40.79
2019-05-01T11:44:54.972Z,41.50
2019-05-01T11:47:25.110Z,41.45
2019-05-01T11:49:54.971Z,41.50
2019-05-01T11:52:25.140Z,41.18
2019-05-01T11:54:55.566Z,39.87
2019-05-01T11:57:25.677Z,39.21
2019-05-01T11:59:55.538Z,40.14
2019-05-01T12:02:25.421Z,40.52
2019-05-01T12:04:55.288Z,39.62
2019-05-01T12:07:25.240Z,40.30
2019-05-01T12:09:55.110Z,39.41
2019-05-01T12:12:26.890Z,38.41
2019-05-01T12:14:56.779Z,39.20
2019-05-01T12:17:39.032Z,38.78
2019-05-01T12:20:09.458Z,38.37
2019-05-01T12:22:39.341Z,37.95
2019-05-01T12:25:09.390Z,37.44
2019-05-01T12:27:39.303Z,38.04
2019-05-01T12:30:10.901Z,37.98
2019-05-01T12:32:41.047Z,37.01
2019-05-01T12:35:11.276Z,36.75
2019-05-01T12:37:44.751Z,37.55
2019-05-01T12:40:20.612Z,36.77
2019-05-01T12:42:50.536Z,36.09
2019-05-01T12:45:20.554Z,34.59
2019-05-01T12:47:52.441Z,35.70
2019-05-01T12:50:23.165Z,35.63
2019-05-01T12:53:05.115Z,35.70
2019-05-01T12:56:06.472Z,34.66
2019-05-01T12:58:37.597Z,35.23
2019-05-01T13:01:07.536Z,34.63
2019-05-01T13:03:37.514Z,34.43
2019-05-01T13:06:07.448Z,33.29
2019-05-01T13:08:37.655Z,34.17
2019-05-01T13:11:07.867Z,32.93
2019-05-01T13:13:37.742Z,32.74
2019-05-01T13:16:07.605Z,33.44
2019-05-01T13:18:37.524Z,33.41
2019-05-01T13:21:07.365Z,34.34
2019-05-01T13:23:37.291Z,34.62
2019-05-01T13:26:14.182Z,34.49
2019-05-01T13:28:51.941Z,33.53
2019-05-01T13:31:36.589Z,34.11
2019-05-01T13:34:06.942Z,34.25
2019-05-01T13:36:37.081Z,34.40
2019-05-01T13:39:10.181Z,33.73
2019-05-01T13:41:43.085Z,33.02
2019-05-01T13:44:12.997Z,32.30
2019-05-01T13:46:43.204Z,33.45
2019-05-01T13:49:13.569Z,32.76
2019-05-01T13:51:43.750Z,34.08
2019-05-01T13:54:13.701Z,34.65
2019-05-01T13:56:43.620Z,34.28
2019-05-01T13:59:15.555Z,34.16
2019-05-01T14:01:45.539Z,33.43
2019-05-01T14:04:16.222Z,34.32
2019-05-01T14:06:46.086Z,33.77
2019-05-01T14:09:20.366Z,35.24
2019-05-01T14:11:50.215Z,35.43
2019-05-01T14:14:20.072Z,35.46
2019-05-01T14:16:49.921Z,34.93
2019-05-01T14:19:19.779Z,34.14
2019-05-01T14:22:07.616Z,34.36
2019-05-01T14:24:40.190Z,33.98
2019-05-01T14:27:10.146Z,33.79
2019-05-01T14:29:40.105Z,34.46
2019-05-01T14:32:10.119Z,35.35
2019-05-01T14:34:39.984Z,35.28
2019-05-01T14:37:09.843Z,34.93
2019-05-01T14:39:39.720Z,36.03
2019-05-01T14:42:09.686Z,36.70
2019-05-01T14:44:39.745Z,36.10
2019-05-01T14:47:09.698Z,36.01
2019-05-01T14:49:39.645Z,35.52
2019-05-01T14:52:09.672Z,35.89
2019-05-01T14:54:39.950Z,35.97
2019-05-01T14:57:10.127Z,35.93
2019-05-01T14:59:40.012Z,35.83
2019-05-01T15:02:09.911Z,36.31
2019-05-01T15:04:39.762Z,36.64
2019-05-01T15:07:11.215Z,36.27
2019-05-01T15:09:41.563Z,36.38
2019-05-01T15:12:11.417Z,36.62
2019-05-01T15:14:51.158Z,36.50
2019-05-01T15:17:30.996Z,37.11
2019-05-01T15:20:03.069Z,36.42
2019-05-01T15:22:52.223Z,36.59
2019-05-01T15:25:22.050Z,36.18
2019-05-01T15:27:51.933Z,36.86
2019-05-01T15:30:22.160Z,37.76
2019-05-01T15:32:52.037Z,36.75
2019-05-01T15:35:21.878Z,36.31
2019-05-01T15:37:56.830Z,36.29
2019-05-01T15:40:29.662Z,36.65
2019-05-01T15:43:17.286Z,36.43
2019-05-01T15:45:47.563Z,36.59
2019-05-01T15:48:17.408Z,37.46
2019-05-01T15:50:47.549Z,37.54
2019-05-01T15:53:17.699Z,38.04
2019-05-01T15:55:48.038Z,37.69
2019-05-01T15:58:17.895Z,37.26
2019-05-01T16:00:47.796Z,38.04
2019-05-01T16:03:17.981Z,38.15
2019-05-01T16:05:47.848Z,38.15
2019-05-01T16:08:17.932Z,38.58
2019-05-01T16:10:55.854Z,38.34
2019-05-01T16:13:25.726Z,38.15
2019-05-01T16:15:55.668Z,38.36
2019-05-01T16:18:25.531Z,38.71
2019-05-01T16:20:55.393Z,38.58
2019-05-01T16:23:25.339Z,38.48
2019-05-01T16:25:55.217Z,38.79
2019-05-01T16:28:25.372Z,38.78
2019-05-01T16:30:55.231Z,38.87
2019-05-01T16:33:25.225Z,39.41
2019-05-01T16:35:55.108Z,39.83
2019-05-01T16:38:33.029Z,40.11
2019-05-01T16:41:06.060Z,40.11
2019-05-01T16:43:36.347Z,40.20
2019-05-01T16:46:06.765Z,39.76
2019-05-01T16:48:36.927Z,40.26
2019-05-01T16:51:06.883Z,40.05
2019-05-01T16:53:36.731Z,40.18
2019-05-01T16:56:06.792Z,40.64
2019-05-01T16:58:37.217Z,40.63
2019-05-01T17:01:12.898Z,40.72
2019-05-01T17:04:04.772Z,41.20
2019-05-01T17:07:00.166Z,41.41
2019-05-01T17:09:46.832Z,41.88
2019-05-01T17:12:19.545Z,41.83
2019-05-01T17:14:49.925Z,42.12
2019-05-01T17:17:22.213Z,42.79
2019-05-01T17:19:52.050Z,42.55
2019-05-01T17:22:21.966Z,43.13
2019-05-01T17:24:52.071Z,43.94
2019-05-01T17:27:22.280Z,44.09
2019-05-01T17:29:52.184Z,44.03
2019-05-01T17:32:22.389Z,44.40
2019-05-01T17:34:52.768Z,44.85
2019-05-01T17:37:22.722Z,44.95
2019-05-01T17:39:52.783Z,45.66
2019-05-01T17:42:23.028Z,45.51
2019-05-01T17:44:55.995Z,45.98
2019-05-01T17:47:26.960Z,45.82
2019-05-01T17:49:56.734Z,45.90
2019-05-01T17:52:26.635Z,46.69
2019-05-01T17:54:56.518Z,46.86
2019-05-01T17:57:26.353Z,47.20
2019-05-01T17:59:58.453Z,47.85
2019-05-01T18:02:38.755Z,47.89
2019-05-01T18:05:16.207Z,48.07
2019-05-01T18:07:46.375Z,48.64
2019-05-01T18:10:16.592Z,48.81
2019-05-01T18:12:46.478Z,49.14
2019-05-01T18:15:16.716Z,49.46
2019-05-01T18:17:47.032Z,49.53
2019-05-01T18:20:17.149Z,50.00
2019-05-01T18:22:57.388Z,50.23
2019-05-01T18:25:34.924Z,50.77
2019-05-01T18:28:14.375Z,51.31
2019-05-01T18:30:44.886Z,51.58
2019-05-01T18:33:14.718Z,52.16
2019-05-01T18:35:48.866Z,52.67
2019-05-01T18:38:42.998Z,53.12
2019-05-01T18:41:26.140Z,53.61
2019-05-01T18:43:56.054Z,54.22
2019-05-01T18:46:26.102Z,54.64
2019-05-01T18:48:56.105Z,55.18
2019-05-01T18:51:26.363Z,55.61
2019-05-01T18:53:57.795Z,56.20
2019-05-01T18:56:27.905Z,56.73
2019-05-01T18:58:57.805Z,57.05
2019-05-01T19:01:27.681Z,57.38
2019-05-01T19:03:57.620Z,58.01
2019-05-01T19:06:40.099Z,58.40
2019-05-01T19:08:59.412Z,58.75
2019-05-01T19:11:29.360Z,59.33
2019-05-01T19:13:59.631Z,59.90
2019-05-01T19:16:29.571Z,60.42
2019-05-01T19:18:59.847Z,60.66
2019-05-01T19:21:30.391Z,61.35
2019-05-01T19:24:02.367Z,61.83
2019-05-01T19:26:32.841Z,62.57
2019-05-01T19:29:02.754Z,63.28
2019-05-01T19:31:33.102Z,63.64
2019-05-01T19:34:02.995Z,64.50
2019-05-01T19:36:33.166Z,64.99
2019-05-01T19:39:06.836Z,65.60
2019-05-01T19:41:35.722Z,66.01
2019-05-01T19:44:05.842Z,66.56
2019-05-01T19:46:35.692Z,66.82
2019-05-01T19:49:05.831Z,67.33
2019-05-01T19:51:35.699Z,67.87
2019-05-01T19:54:05.767Z,68.08
2019-05-01T19:56:36.375Z,68.16
2019-05-01T19:59:06.234Z,68.44
2019-05-01T20:01:38.398Z,68.75
2019-05-01T20:04:08.473Z,68.85
2019-05-01T20:06:40.246Z,68.96
2019-05-01T20:09:10.327Z,69.00
2019-05-01T20:11:40.436Z,69.36
2019-05-01T20:14:10.309Z,69.56
2019-05-01T20:16:40.168Z,69.79
2019-05-01T20:19:10.505Z,70.27
2019-05-01T20:21:41.843Z,70.44
2019-05-01T20:24:12.203Z,70.78
2019-05-01T20:26:42.034Z,70.83
2019-05-01T20:29:12.153Z,71.22
2019-05-01T20:31:45.747Z,71.27
2019-05-01T20:34:17.443Z,71.29
2019-05-01T20:36:46.406Z,71.42
2019-05-01T20:39:16.334Z,71.73
2019-05-01T20:41:46.240Z,71.78
2019-05-01T20:44:23.206Z,71.79
2019-05-01T20:46:47.770Z,71.80
2019-05-01T20:49:17.951Z,72.07
2019-05-01T20:51:47.861Z,72.22
2019-05-01T20:54:18.029Z,72.40
2019-05-01T20:56:59.150Z,72.75
2019-05-01T20:59:29.024Z,73.30
2019-05-01T21:01:59.710Z,73.53
2019-05-01T21:04:58.410Z,73.44
2019-05-01T21:07:31.289Z,73.71
2019-05-01T21:10:02.409Z,74.07
2019-05-01T21:12:32.258Z,73.67
2019-05-01T21:15:02.135Z,73.88
2019-05-01T21:17:32.258Z,73.42
2019-05-01T21:20:03.756Z,73.23
2019-05-01T21:22:33.806Z,73.25
2019-05-01T21:25:04.625Z,73.28
2019-05-01T21:27:34.658Z,73.18
2019-05-01T21:30:05.370Z,72.81
2019-05-01T21:32:35.266Z,72.65
2019-05-01T21:35:05.261Z,72.74
2019-05-01T21:37:35.142Z,72.78
2019-05-01T21:40:06.098Z,72.69
2019-05-01T21:42:36.137Z,72.46
2019-05-01T21:45:06.986Z,72.92
2019-05-01T21:47:37.378Z,73.01
2019-05-01T21:50:07.422Z,73.05
2019-05-01T21:52:37.285Z,72.93
2019-05-01T21:55:07.413Z,73.00
2019-05-01T21:57:40.613Z,73.28
2019-05-01T22:00:11.266Z,73.74
2019-05-01T22:02:41.511Z,73.92
2019-05-01T22:05:12.929Z,74.43
2019-05-01T22:07:43.140Z,74.68
2019-05-01T22:10:14.059Z,74.99
2019-05-01T22:12:49.028Z,75.31
2019-05-01T22:15:23.740Z,75.54
2019-05-01T22:18:05.001Z,75.91
2019-05-01T22:20:42.536Z,76.16
2019-05-01T22:23:17.111Z,76.24
2019-05-01T22:25:53.755Z,76.35
2019-05-01T22:28:29.624Z,76.46
2019-05-01T22:31:21.840Z,76.57
2019-05-01T22:33:51.908Z,76.85
2019-05-01T22:36:21.764Z,76.90
2019-05-01T22:38:51.645Z,76.88
2019-05-01T22:41:21.908Z,77.29
2019-05-01T22:43:51.984Z,77.54
2019-05-01T22:46:28.479Z,77.46
2019-05-01T22:48:58.743Z,77.57
2019-05-01T22:51:28.966Z,77.59
2019-05-01T22:53:58.822Z,77.80
2019-05-01T22:56:28.814Z,77.97
2019-05-01T22:58:58.675Z,78.17
2019-05-01T23:01:28.751Z,77.95
2019-05-01T23:04:04.741Z,77.93
2019-05-01T23:06:37.324Z,78.39
2019-05-01T23:09:09.494Z,78.45
2019-05-01T23:11:42.421Z,78.37
2019-05-01T23:14:12.362Z,78.58
2019-05-01T23:16:52.811Z,78.77
2019-05-01T23:19:27.317Z,78.97
2019-05-01T23:21:54.346Z,79.08
2019-05-01T23:24:24.259Z,78.83
2019-05-01T23:26:54.076Z,79.00
2019-05-01T23:29:24.305Z,78.87
2019-05-01T23:31:54.358Z,78.98
2019-05-01T23:34:26.044Z,79.32
2019-05-01T23:36:55.847Z,79.58
2019-05-01T23:39:25.712Z,79.65
2019-05-01T23:41:55.878Z,79.89
2019-05-01T23:44:25.828Z,80.15
2019-05-01T23:46:55.948Z,80.49
2019-05-01T23:49:25.780Z,80.75
2019-05-01T23:51:58.645Z,80.67
2019-05-01T23:54:27.297Z,81.08
2019-05-01T23:56:57.191Z,81.43
2019-05-01T23:59:27.061Z,81.58
